Portada
METAR-TAF:

METAR-TAF

Aeropuertos :

Aeropuerto de Castellón-Costa Azahar

Castellón de la Plana, España

latitud: 40-12-35N, longitud: 0-04-11E, altitud: 360 m

Observación

El informe se hizo hace 13 minutos, a las 01:00 UTC
Viento 9 kt del norte-noreste, variando entre norte y este-noreste
Temperatura 10°C
Humedad 93%
Presión 1025 hPa
Visibilidad: 8000 m
Escasas nubes a una altura de 1200 ft
Nubes dispersas a una altura de 1900 ft
Cielo nuboso a una altura de 2600 ft

METAR: LECH 020100Z AUTO 02009KT 350V070 8000 FEW012 SCT019 BKN026 10/09 Q1025

Hora: 02:13 (01:13 UTC)


TAF: falta

Observaciones y pronósticos meteorológicos de más de 4000 aeropuertos (mensajes METAR y TAF).

Los puntos amarillos y rojos representan las estaciones disponibles.

Ponga el ratón en el punto deseado para ver el nombre de la estación.

Haga clic para ver las observaciones y los pronósticos meteorológicos.

Para cambiar el mapa : haga clic en los botones verdes con una cruz de color negro para hacer un zoom, en el botón verde con un guión para alejar o en las flechas verdes para mapas adyacentes.


METAR-TAF: